Time;durP1;ratioP1;P1;durP2;ratioP2;P2;SDS_P1;SDS_P2;PMS_P1;PMS_P2;Temp;Humidity;BMP_temperature;BMP_pressure;BME280_temperature;BME280_humidity;BME280_pressure;Samples;Min_cycle;Max_cycle;Signal;HPM_P1;HPM_P2
2023/09/14 00:02:22;;;;;;;18.25;9.95;;;;;;;;;;4795842;30;20220;-89
2023/09/14 00:05:34;;;;;;;20.88;10.55;;;;;;;;;;4794529;30;20200;-87
2023/09/14 00:08:47;;;;;;;20.83;11.20;;;;;;;;;;4795788;30;20722;-90
2023/09/14 00:11:59;;;;;;;18.23;10.00;;;;;;;;;;4795698;30;20196;-88
2023/09/14 00:15:11;;;;;;;18.08;10.27;;;;;;;;;;4795578;30;20277;-91
2023/09/14 00:18:22;;;;;;;19.00;9.95;;;;;;;;;;4785896;30;20216;-91
2023/09/14 00:21:34;;;;;;;19.08;10.07;;;;;;;;;;4795742;30;20197;-89
2023/09/14 00:24:47;;;;;;;18.50;10.05;;;;;;;;;;4795638;30;20220;-91
2023/09/14 00:28:01;;;;;;;16.90;10.32;;;;;;;;;;4795022;30;20221;-91
2023/09/14 00:31:13;;;;;;;16.48;9.70;;;;;;;;;;4794480;29;20225;-92
2023/09/14 00:34:24;;;;;;;16.98;9.35;;;;;;;;;;4794220;30;20330;-90
2023/09/14 00:37:35;;;;;;;17.30;9.88;;;;;;;;;;4794494;30;20249;-91
2023/09/14 00:40:48;;;;;;;13.70;8.93;;;;;;;;;;4795332;30;20224;-87
2023/09/14 00:43:59;;;;;;;16.23;9.57;;;;;;;;;;4796718;30;20200;-92
2023/09/14 00:47:11;;;;;;;17.92;9.75;;;;;;;;;;4795264;30;20201;-91
2023/09/14 00:50:23;;;;;;;18.00;10.13;;;;;;;;;;4796165;30;20218;-91
2023/09/14 00:53:34;;;;;;;18.10;10.40;;;;;;;;;;4796114;30;20197;-92
2023/09/14 00:56:47;;;;;;;18.00;10.35;;;;;;;;;;4796385;30;20205;-90
2023/09/14 00:59:59;;;;;;;16.92;9.93;;;;;;;;;;4795518;30;20224;-87
2023/09/14 01:03:11;;;;;;;20.98;10.73;;;;;;;;;;4794614;30;20224;-91
2023/09/14 01:06:24;;;;;;;18.30;10.65;;;;;;;;;;4794757;30;20228;-92
2023/09/14 01:09:36;;;;;;;17.40;9.88;;;;;;;;;;4795054;30;20201;-91
2023/09/14 01:12:49;;;;;;;16.40;9.95;;;;;;;;;;4803328;29;20200;-89
2023/09/14 01:16:10;;;;;;;18.55;10.32;;;;;;;;;;4781270;30;20286;-88
2023/09/14 01:19:32;;;;;;;16.08;9.80;;;;;;;;;;4794046;30;20232;-90
2023/09/14 01:22:48;;;;;;;18.25;10.30;;;;;;;;;;4793817;30;20201;-90
2023/09/14 01:26:02;;;;;;;23.25;11.25;;;;;;;;;;4794363;30;20209;-91
2023/09/14 01:29:13;;;;;;;19.83;11.30;;;;;;;;;;4784393;30;20231;-91
2023/09/14 01:32:25;;;;;;;18.33;10.93;;;;;;;;;;4793862;30;20216;-90
2023/09/14 01:35:42;;;;;;;21.65;10.35;;;;;;;;;;4794779;30;20354;-92
2023/09/14 01:38:54;;;;;;;16.00;10.05;;;;;;;;;;4777010;30;20277;-93
2023/09/14 01:42:08;;;;;;;18.77;10.43;;;;;;;;;;4776548;30;20201;-89
2023/09/14 01:45:20;;;;;;;19.05;10.50;;;;;;;;;;4777251;30;20197;-91
2023/09/14 01:48:32;;;;;;;18.02;10.38;;;;;;;;;;4793961;30;20258;-91
2023/09/14 01:51:43;;;;;;;19.80;10.40;;;;;;;;;;4792531;30;20640;-89
2023/09/14 01:54:55;;;;;;;19.67;10.65;;;;;;;;;;4793128;30;20205;-90
2023/09/14 01:58:09;;;;;;;20.38;10.70;;;;;;;;;;4793334;30;20249;-90
2023/09/14 02:01:21;;;;;;;20.35;10.50;;;;;;;;;;4792981;30;20228;-91
2023/09/14 02:04:32;;;;;;;17.30;9.75;;;;;;;;;;4793222;30;20205;-90
2023/09/14 02:07:44;;;;;;;17.15;10.35;;;;;;;;;;4793678;30;20676;-90
2023/09/14 02:10:56;;;;;;;18.73;11.10;;;;;;;;;;4776248;30;20220;-89
2023/09/14 02:14:08;;;;;;;18.42;10.68;;;;;;;;;;4793271;30;20695;-90
2023/09/14 02:17:19;;;;;;;19.33;10.27;;;;;;;;;;4791567;30;20193;-90
2023/09/14 02:20:30;;;;;;;19.33;10.88;;;;;;;;;;4787662;30;20221;-90
2023/09/14 02:23:41;;;;;;;20.23;10.25;;;;;;;;;;4773670;30;20190;-89
2023/09/14 02:26:54;;;;;;;16.92;10.27;;;;;;;;;;4774313;30;20209;-89
2023/09/14 02:30:10;;;;;;;17.52;10.32;;;;;;;;;;4773438;30;20197;-90
2023/09/14 02:33:21;;;;;;;17.90;9.63;;;;;;;;;;4785932;30;20216;-89
2023/09/14 02:36:33;;;;;;;17.17;10.20;;;;;;;;;;4791964;30;20220;-91
2023/09/14 02:39:45;;;;;;;19.10;9.77;;;;;;;;;;4792825;30;20236;-92
2023/09/14 02:42:56;;;;;;;14.00;9.18;;;;;;;;;;4792008;30;20215;-90
2023/09/14 02:46:09;;;;;;;14.32;8.82;;;;;;;;;;4792910;30;20297;-89
2023/09/14 02:49:21;;;;;;;16.05;9.77;;;;;;;;;;4792814;30;20204;-91
2023/09/14 02:52:33;;;;;;;16.20;10.10;;;;;;;;;;4792632;30;20220;-90
2023/09/14 02:55:45;;;;;;;19.23;10.30;;;;;;;;;;4792188;30;20196;-91
2023/09/14 02:58:57;;;;;;;17.10;10.45;;;;;;;;;;4776852;30;20589;-91
2023/09/14 03:02:10;;;;;;;18.08;9.88;;;;;;;;;;4792499;29;20708;-91
2023/09/14 03:05:22;;;;;;;16.95;9.10;;;;;;;;;;4792053;30;20339;-90
2023/09/14 03:08:34;;;;;;;22.30;9.32;;;;;;;;;;4792544;30;20276;-90
2023/09/14 03:11:46;;;;;;;16.17;9.68;;;;;;;;;;4793969;30;20266;-90
2023/09/14 03:14:58;;;;;;;17.45;9.57;;;;;;;;;;4791205;30;20364;-91
2023/09/14 03:18:11;;;;;;;15.32;9.30;;;;;;;;;;4791865;30;20257;-91
2023/09/14 03:21:24;;;;;;;17.02;9.43;;;;;;;;;;4791798;30;20260;-91
2023/09/14 03:24:36;;;;;;;17.48;10.45;;;;;;;;;;4791406;30;20281;-91
2023/09/14 03:27:49;;;;;;;15.65;9.93;;;;;;;;;;4791701;30;20692;-91
2023/09/14 03:31:01;;;;;;;19.33;10.05;;;;;;;;;;4774528;30;20193;-90
2023/09/14 03:34:14;;;;;;;17.10;10.05;;;;;;;;;;4775108;30;20620;-92
2023/09/14 03:37:25;;;;;;;16.80;9.73;;;;;;;;;;4774714;30;20570;-89
2023/09/14 03:40:38;;;;;;;16.63;9.57;;;;;;;;;;4775454;30;20229;-89
2023/09/14 03:43:49;;;;;;;18.52;10.65;;;;;;;;;;4775245;30;20201;-92
2023/09/14 03:47:01;;;;;;;17.67;9.77;;;;;;;;;;4787570;30;20231;-90
2023/09/14 03:50:14;;;;;;;17.35;10.00;;;;;;;;;;4774121;30;20209;-91
2023/09/14 03:53:26;;;;;;;15.93;9.60;;;;;;;;;;4774629;30;20201;-91
2023/09/14 03:56:38;;;;;;;17.73;10.43;;;;;;;;;;4773462;30;20209;-91
2023/09/14 03:59:51;;;;;;;18.15;10.48;;;;;;;;;;4786753;30;20284;-90
2023/09/14 04:03:03;;;;;;;17.85;10.68;;;;;;;;;;4791679;30;20228;-91
2023/09/14 04:06:17;;;;;;;17.35;9.40;;;;;;;;;;4791875;30;20233;-91
2023/09/14 04:09:29;;;;;;;17.67;9.57;;;;;;;;;;4784163;30;20244;-90
2023/09/14 04:12:42;;;;;;;16.10;9.52;;;;;;;;;;4793981;30;20208;-91
2023/09/14 04:15:54;;;;;;;18.95;10.13;;;;;;;;;;4794595;30;20216;-91
2023/09/14 04:19:05;;;;;;;17.60;9.93;;;;;;;;;;4794644;30;20342;-91
2023/09/14 04:22:19;;;;;;;17.70;10.55;;;;;;;;;;4794198;30;20192;-92
2023/09/14 04:25:30;;;;;;;17.15;10.05;;;;;;;;;;4795166;30;20212;-90
2023/09/14 04:28:43;;;;;;;16.30;9.93;;;;;;;;;;4793723;30;20611;-92
2023/09/14 04:31:58;;;;;;;19.30;10.35;;;;;;;;;;4794231;30;20669;-92
2023/09/14 04:35:10;;;;;;;17.48;10.57;;;;;;;;;;4795286;30;20220;-91
2023/09/14 04:38:23;;;;;;;18.55;11.05;;;;;;;;;;4796081;30;20262;-91
2023/09/14 04:41:35;;;;;;;21.33;11.00;;;;;;;;;;4776926;30;20396;-92
2023/09/14 04:44:50;;;;;;;19.35;10.20;;;;;;;;;;4782035;30;20212;-91
2023/09/14 04:48:02;;;;;;;20.30;10.75;;;;;;;;;;4784538;30;20525;-90
2023/09/14 04:51:14;;;;;;;20.42;10.05;;;;;;;;;;4777600;30;20200;-91
2023/09/14 04:54:27;;;;;;;18.38;10.40;;;;;;;;;;4777507;30;20214;-92
2023/09/14 04:57:39;;;;;;;15.23;10.15;;;;;;;;;;4775259;30;20209;-92
2023/09/14 05:00:51;;;;;;;17.85;10.07;;;;;;;;;;4792755;30;20238;-90
2023/09/14 07:01:07;;;;;;;23.65;12.07;;;;;;;;;;6107635;22;1348296;-87
2023/09/14 07:04:13;;;;;;;19.88;10.80;;;;;;;;;;6095639;23;20170;-89
2023/09/14 07:07:18;;;;;;;20.75;11.18;;;;;;;;;;6089237;23;20673;-89
2023/09/14 07:10:23;;;;;;;22.05;10.63;;;;;;;;;;6090708;23;20174;-89
2023/09/14 07:13:28;;;;;;;15.07;9.63;;;;;;;;;;6089810;23;20166;-88
2023/09/14 07:16:35;;;;;;;18.20;9.07;;;;;;;;;;6089258;23;20174;-88
2023/09/14 07:19:40;;;;;;;15.88;9.30;;;;;;;;;;6092416;23;20224;-89
2023/09/14 07:22:46;;;;;;;17.77;9.73;;;;;;;;;;6090149;23;20193;-87
2023/09/14 07:25:51;;;;;;;17.73;10.13;;;;;;;;;;6089710;23;20166;-90
2023/09/14 07:28:56;;;;;;;16.42;10.35;;;;;;;;;;6091615;23;20257;-89
2023/09/14 07:35:35;;;;;;;19.58;9.63;;;;;;;;;;6090155;23;20174;-90
2023/09/14 07:38:40;;;;;;;15.98;9.68;;;;;;;;;;6089115;23;20494;-88
2023/09/14 07:41:46;;;;;;;18.20;9.82;;;;;;;;;;6090229;23;20186;-90
2023/09/14 07:44:51;;;;;;;12.45;8.70;;;;;;;;;;6089039;23;20550;-86
2023/09/14 07:47:57;;;;;;;14.40;9.35;;;;;;;;;;6087927;23;20178;-91
2023/09/14 07:51:02;;;;;;;18.55;9.52;;;;;;;;;;6086744;23;20297;-87
2023/09/14 07:54:07;;;;;;;13.85;8.40;;;;;;;;;;6086949;23;20170;-87
2023/09/14 07:57:12;;;;;;;14.77;9.07;;;;;;;;;;6086822;23;20170;-88
2023/09/14 08:00:17;;;;;;;20.27;9.27;;;;;;;;;;6080533;23;20198;-87
2023/09/14 08:03:25;;;;;;;12.80;8.43;;;;;;;;;;6063577;23;20214;-89
2023/09/14 08:06:30;;;;;;;13.43;7.68;;;;;;;;;;6062748;23;20174;-89
2023/09/14 08:09:41;;;;;;;14.52;8.90;;;;;;;;;;6061274;23;20223;-87
2023/09/14 08:12:46;;;;;;;10.27;7.15;;;;;;;;;;6059357;23;20218;-90
2023/09/14 08:15:51;;;;;;;12.35;7.43;;;;;;;;;;6057766;23;20174;-91
2023/09/14 08:18:58;;;;;;;12.48;7.90;;;;;;;;;;6057433;23;20178;-89
2023/09/14 08:22:03;;;;;;;12.38;7.47;;;;;;;;;;6058651;23;20190;-91
2023/09/14 08:25:10;;;;;;;12.05;7.75;;;;;;;;;;6059659;23;20861;-91
2023/09/14 08:28:15;;;;;;;12.10;7.45;;;;;;;;;;6060614;23;20254;-88
2023/09/14 08:31:21;;;;;;;13.93;7.65;;;;;;;;;;6062652;23;20171;-90
2023/09/14 08:34:27;;;;;;;14.00;7.20;;;;;;;;;;6060868;23;20186;-90
2023/09/14 08:37:33;;;;;;;12.77;7.07;;;;;;;;;;6060654;23;20219;-90
2023/09/14 08:40:39;;;;;;;11.77;6.88;;;;;;;;;;6060675;23;20173;-91
2023/09/14 08:43:47;;;;;;;9.93;6.28;;;;;;;;;;6060071;23;20197;-90
2023/09/14 08:46:53;;;;;;;10.43;5.75;;;;;;;;;;6059387;23;20191;-87
2023/09/14 08:50:00;;;;;;;10.43;6.90;;;;;;;;;;6060798;23;20241;-90
2023/09/14 08:53:05;;;;;;;10.90;6.63;;;;;;;;;;6060677;23;20170;-91
2023/09/14 08:56:13;;;;;;;10.30;7.28;;;;;;;;;;6060980;23;20213;-91
2023/09/14 08:59:20;;;;;;;13.70;8.40;;;;;;;;;;6058950;23;20254;-90
2023/09/14 09:02:27;;;;;;;14.70;7.40;;;;;;;;;;6058534;23;20511;-89
2023/09/14 09:05:33;;;;;;;11.95;7.22;;;;;;;;;;6057916;23;20281;-89
2023/09/14 09:08:39;;;;;;;11.45;6.80;;;;;;;;;;6092076;23;20630;-90
2023/09/14 09:11:46;;;;;;;11.68;7.20;;;;;;;;;;6076963;23;20224;-89
2023/09/14 09:14:52;;;;;;;10.20;6.32;;;;;;;;;;6059326;23;20176;-88
2023/09/14 09:17:58;;;;;;;9.77;6.15;;;;;;;;;;6095859;23;20174;-90
2023/09/14 09:21:06;;;;;;;8.43;6.13;;;;;;;;;;6058606;23;20170;-88
2023/09/14 09:24:14;;;;;;;8.45;6.25;;;;;;;;;;6080759;23;20173;-89
2023/09/14 09:27:26;;;;;;;10.10;6.22;;;;;;;;;;6099141;23;20178;-90
2023/09/14 09:30:32;;;;;;;8.80;6.43;;;;;;;;;;6066664;23;20206;-92
2023/09/14 09:33:37;;;;;;;11.15;6.13;;;;;;;;;;6100282;23;20193;-89
2023/09/14 09:36:44;;;;;;;7.57;5.07;;;;;;;;;;6100351;23;20222;-91
2023/09/14 09:39:51;;;;;;;8.23;5.45;;;;;;;;;;6067038;23;20177;-92
2023/09/14 09:42:56;;;;;;;7.80;5.68;;;;;;;;;;6100207;23;20170;-92
2023/09/14 09:46:02;;;;;;;7.40;5.18;;;;;;;;;;6066966;23;20173;-89
2023/09/14 09:49:17;;;;;;;6.65;5.00;;;;;;;;;;6101081;23;20166;-90
2023/09/14 09:52:24;;;;;;;6.85;5.38;;;;;;;;;;6068225;23;20626;-88
2023/09/14 09:55:30;;;;;;;8.23;4.63;;;;;;;;;;6102725;23;20165;-88
2023/09/14 09:58:36;;;;;;;7.90;4.65;;;;;;;;;;6101648;23;20257;-90
2023/09/14 10:01:41;;;;;;;7.82;4.75;;;;;;;;;;6068181;23;20188;-91
2023/09/14 10:04:53;;;;;;;6.93;4.90;;;;;;;;;;6069119;23;20203;-90
2023/09/14 10:08:00;;;;;;;6.57;5.22;;;;;;;;;;6069709;23;20174;-90
2023/09/14 10:11:05;;;;;;;6.05;4.60;;;;;;;;;;6063503;23;20222;-89
2023/09/14 10:14:13;;;;;;;8.73;4.68;;;;;;;;;;6062611;23;20197;-90
2023/09/14 10:17:20;;;;;;;7.97;5.03;;;;;;;;;;6062120;23;20161;-90
2023/09/14 10:20:26;;;;;;;9.57;5.28;;;;;;;;;;6060615;23;20170;-90
2023/09/14 10:23:34;;;;;;;10.50;5.20;;;;;;;;;;6059394;23;20185;-90
2023/09/14 10:26:38;;;;;;;6.25;4.65;;;;;;;;;;6061607;23;20215;-89
2023/09/14 10:29:44;;;;;;;7.78;6.00;;;;;;;;;;6061635;23;20165;-90
2023/09/14 10:32:49;;;;;;;7.25;5.20;;;;;;;;;;6063691;23;20233;-91
2023/09/14 10:35:55;;;;;;;6.97;4.85;;;;;;;;;;6081864;23;20170;-91
2023/09/14 10:39:05;;;;;;;8.07;5.38;;;;;;;;;;6064131;23;20207;-91
2023/09/14 10:42:11;;;;;;;7.30;4.68;;;;;;;;;;6063555;23;20173;-90
2023/09/14 10:45:16;;;;;;;6.80;5.28;;;;;;;;;;6063116;23;20174;-89
2023/09/14 10:48:21;;;;;;;6.38;4.95;;;;;;;;;;6066790;23;20219;-91
2023/09/14 10:51:27;;;;;;;8.00;5.20;;;;;;;;;;6066061;23;20170;-90
2023/09/14 10:54:34;;;;;;;8.48;5.72;;;;;;;;;;6066623;23;20242;-90
2023/09/14 10:57:40;;;;;;;8.48;5.80;;;;;;;;;;6069987;23;20173;-90
2023/09/14 11:00:48;;;;;;;8.75;5.22;;;;;;;;;;6083446;23;20233;-90
2023/09/14 11:04:10;;;;;;;11.20;5.72;;;;;;;;;;6099477;23;20176;-90
2023/09/14 11:07:37;;;;;;;9.70;6.03;;;;;;;;;;6133497;23;20173;-89
2023/09/14 11:10:53;;;;;;;8.23;4.53;;;;;;;;;;6130026;23;20153;-88
2023/09/14 11:13:59;;;;;;;6.45;4.85;;;;;;;;;;6127015;23;20220;-89
2023/09/14 11:17:04;;;;;;;7.50;4.57;;;;;;;;;;6125577;23;20189;-88
2023/09/14 11:20:25;;;;;;;5.68;4.60;;;;;;;;;;6124194;23;20169;-89
2023/09/14 11:23:35;;;;;;;7.88;5.20;;;;;;;;;;6126716;23;20174;-91
2023/09/14 11:26:49;;;;;;;6.07;4.25;;;;;;;;;;6092193;23;20165;-90
2023/09/14 11:29:55;;;;;;;5.20;4.10;;;;;;;;;;6126405;23;20169;-90
2023/09/14 11:33:03;;;;;;;6.75;4.60;;;;;;;;;;6125845;23;20282;-88
2023/09/14 11:36:09;;;;;;;7.32;4.68;;;;;;;;;;6127088;23;20177;-92
2023/09/14 11:39:18;;;;;;;7.65;4.32;;;;;;;;;;6091722;23;20629;-89
2023/09/14 11:42:25;;;;;;;8.48;4.45;;;;;;;;;;6130606;23;20217;-91
2023/09/14 11:45:30;;;;;;;7.20;3.75;;;;;;;;;;6129971;23;20181;-90
2023/09/14 11:48:43;;;;;;;6.63;3.70;;;;;;;;;;6096826;23;20169;-89
2023/09/14 11:51:48;;;;;;;5.32;3.63;;;;;;;;;;6129563;23;20261;-89
2023/09/14 11:54:53;;;;;;;4.80;3.45;;;;;;;;;;6123910;23;20180;-90
2023/09/14 11:58:00;;;;;;;7.00;3.58;;;;;;;;;;6123858;23;20237;-91
2023/09/14 12:01:05;;;;;;;6.43;3.53;;;;;;;;;;6089715;23;20193;-90
2023/09/14 12:04:10;;;;;;;6.50;3.75;;;;;;;;;;6121723;23;20166;-89
2023/09/14 12:07:15;;;;;;;6.32;3.58;;;;;;;;;;6124808;23;20257;-89
2023/09/14 12:10:21;;;;;;;4.57;3.00;;;;;;;;;;6127155;23;20206;-89
2023/09/14 12:13:27;;;;;;;5.05;3.65;;;;;;;;;;6125325;23;20727;-89
2023/09/14 12:16:33;;;;;;;6.93;3.35;;;;;;;;;;6124647;23;20169;-91
2023/09/14 12:19:45;;;;;;;4.22;3.28;;;;;;;;;;6089368;23;20231;-91
2023/09/14 12:22:51;;;;;;;4.72;3.17;;;;;;;;;;6124984;23;20189;-90
2023/09/14 12:25:55;;;;;;;5.00;3.33;;;;;;;;;;6121410;23;20161;-90
2023/09/14 12:29:02;;;;;;;4.72;3.22;;;;;;;;;;6089399;23;20173;-91
2023/09/14 12:32:18;;;;;;;3.63;3.08;;;;;;;;;;6125185;23;20176;-91
2023/09/14 12:35:24;;;;;;;4.25;3.20;;;;;;;;;;6123874;23;20200;-91
2023/09/14 12:38:31;;;;;;;5.20;3.47;;;;;;;;;;6126212;23;20188;-88
2023/09/14 12:41:36;;;;;;;4.45;3.15;;;;;;;;;;6123486;23;20173;-90
2023/09/14 12:44:43;;;;;;;4.85;3.00;;;;;;;;;;6087734;23;20169;-91
2023/09/14 12:47:49;;;;;;;3.85;2.92;;;;;;;;;;6122223;23;20165;-90
2023/09/14 12:50:54;;;;;;;4.82;3.10;;;;;;;;;;6126515;23;20186;-88
2023/09/14 12:53:59;;;;;;;4.50;3.25;;;;;;;;;;6092602;23;20193;-89
2023/09/14 12:57:15;;;;;;;4.30;3.20;;;;;;;;;;6123660;23;20545;-91
2023/09/14 13:00:27;;;;;;;4.35;3.42;;;;;;;;;;6123362;23;20272;-88
2023/09/14 13:03:36;;;;;;;4.32;3.20;;;;;;;;;;6090778;23;20206;-91
2023/09/14 13:06:41;;;;;;;4.13;3.10;;;;;;;;;;6090675;23;20222;-89
2023/09/14 13:09:46;;;;;;;3.67;2.88;;;;;;;;;;6091440;23;20241;-92
2023/09/14 13:12:52;;;;;;;4.80;3.08;;;;;;;;;;6092663;23;20553;-91
2023/09/14 13:15:59;;;;;;;6.35;3.08;;;;;;;;;;6090680;23;20188;-90
2023/09/14 13:19:06;;;;;;;4.93;2.92;;;;;;;;;;6092228;23;20239;-90
2023/09/14 13:22:11;;;;;;;7.38;4.30;;;;;;;;;;6091587;23;20164;-90
2023/09/14 13:25:17;;;;;;;6.72;4.18;;;;;;;;;;6094654;23;20172;-92
2023/09/14 13:28:22;;;;;;;9.88;8.05;;;;;;;;;;6096027;23;20706;-90
2023/09/14 13:31:28;;;;;;;3.65;3.17;;;;;;;;;;6093595;23;20277;-90
2023/09/14 13:34:34;;;;;;;134.32;120.53;;;;;;;;;;6094852;23;20197;-90
2023/09/14 13:37:39;;;;;;;8.25;6.88;;;;;;;;;;6096126;23;20198;-87
2023/09/14 13:40:45;;;;;;;3.97;3.58;;;;;;;;;;6094527;23;20289;-91
2023/09/14 13:43:50;;;;;;;48.85;43.67;;;;;;;;;;6096010;23;20172;-90
2023/09/14 13:46:59;;;;;;;8.90;6.47;;;;;;;;;;6094378;23;20190;-90
2023/09/14 13:50:05;;;;;;;12.82;8.65;;;;;;;;;;6095810;23;20177;-89
2023/09/14 13:53:10;;;;;;;28.65;23.92;;;;;;;;;;6094793;23;20519;-92
2023/09/14 13:56:15;;;;;;;5.78;3.40;;;;;;;;;;6097094;23;20174;-89
2023/09/14 13:59:20;;;;;;;378.60;341.10;;;;;;;;;;6095097;23;20177;-90
2023/09/14 14:02:27;;;;;;;3.63;3.05;;;;;;;;;;6064614;23;20175;-91
2023/09/14 14:05:32;;;;;;;10.63;8.27;;;;;;;;;;6066294;23;20178;-90
2023/09/14 14:08:37;;;;;;;22.80;16.05;;;;;;;;;;6099750;23;20177;-91
2023/09/14 14:11:42;;;;;;;10.50;9.20;;;;;;;;;;6064513;23;20170;-90
2023/09/14 14:14:47;;;;;;;17.17;15.25;;;;;;;;;;6097683;23;20271;-90
2023/09/14 14:17:55;;;;;;;7.70;6.22;;;;;;;;;;6097156;23;20177;-89
2023/09/14 14:21:01;;;;;;;445.17;398.60;;;;;;;;;;6096816;23;20166;-91
2023/09/14 14:24:06;;;;;;;78.93;49.03;;;;;;;;;;6097596;23;20153;-90
2023/09/14 14:27:14;;;;;;;4.15;2.63;;;;;;;;;;6100956;23;20174;-90
2023/09/14 14:30:19;;;;;;;4.15;2.67;;;;;;;;;;6065136;23;20255;-91
2023/09/14 14:33:25;;;;;;;3.97;3.10;;;;;;;;;;6065198;23;20170;-89
2023/09/14 14:36:32;;;;;;;4.65;2.58;;;;;;;;;;6097818;23;20220;-90
2023/09/14 14:39:37;;;;;;;3.53;2.60;;;;;;;;;;6099514;23;20197;-92
2023/09/14 14:42:42;;;;;;;3.72;2.50;;;;;;;;;;6099504;23;20173;-89
2023/09/14 14:45:47;;;;;;;2.88;2.33;;;;;;;;;;6099533;23;20666;-89
2023/09/14 14:48:56;;;;;;;4.20;2.63;;;;;;;;;;6097542;23;20291;-88
2023/09/14 14:52:02;;;;;;;3.47;2.63;;;;;;;;;;6084960;23;20219;-89
2023/09/14 14:55:08;;;;;;;5.63;2.70;;;;;;;;;;6079638;23;20238;-90
2023/09/14 14:58:13;;;;;;;3.33;2.55;;;;;;;;;;6095129;23;20613;-91
2023/09/14 15:01:19;;;;;;;5.38;2.42;;;;;;;;;;6086879;23;20193;-89
2023/09/14 15:04:26;;;;;;;3.35;2.50;;;;;;;;;;6095010;23;20185;-88
2023/09/14 15:07:34;;;;;;;3.65;2.42;;;;;;;;;;6094153;23;20165;-89
2023/09/14 15:10:40;;;;;;;4.05;2.85;;;;;;;;;;6076984;23;20603;-89
2023/09/14 15:13:46;;;;;;;5.57;3.50;;;;;;;;;;6097560;23;20218;-88
2023/09/14 15:16:51;;;;;;;4.10;2.83;;;;;;;;;;6095761;23;20502;-90
2023/09/14 15:23:19;;;;;;;3.88;2.85;;;;;;;;;;6095230;23;20278;-91
2023/09/14 15:26:25;;;;;;;4.05;2.80;;;;;;;;;;6094198;23;20168;-91
2023/09/14 15:29:30;;;;;;;3.78;2.75;;;;;;;;;;6095870;23;20214;-86
2023/09/14 15:35:58;;;;;;;5.70;2.63;;;;;;;;;;6095129;23;20198;-87
2023/09/14 15:39:05;;;;;;;4.15;3.10;;;;;;;;;;6094389;23;20169;-89
2023/09/14 15:42:10;;;;;;;4.95;2.67;;;;;;;;;;6095003;23;20166;-90
2023/09/14 15:45:16;;;;;;;4.22;2.97;;;;;;;;;;6093747;23;20173;-89
2023/09/14 15:48:21;;;;;;;4.35;2.40;;;;;;;;;;6092441;23;20170;-91
2023/09/14 15:51:29;;;;;;;3.65;2.60;;;;;;;;;;6092599;23;20166;-88
2023/09/14 15:54:34;;;;;;;4.10;2.70;;;;;;;;;;6093066;23;20709;-87
2023/09/14 15:57:40;;;;;;;4.10;2.92;;;;;;;;;;6092998;23;20542;-87
2023/09/14 16:00:46;;;;;;;6.00;3.08;;;;;;;;;;6084207;23;20194;-89
2023/09/14 16:07:34;;;;;;;3.63;2.53;;;;;;;;;;6087788;23;20214;-89
2023/09/14 16:10:40;;;;;;;4.63;3.25;;;;;;;;;;6081596;23;20169;-90
2023/09/14 16:13:45;;;;;;;7.30;4.03;;;;;;;;;;6081867;23;20251;-88
2023/09/14 16:16:51;;;;;;;5.70;3.53;;;;;;;;;;6080249;23;20171;-89
2023/09/14 16:19:56;;;;;;;4.35;3.20;;;;;;;;;;6079534;23;20172;-88
2023/09/14 16:23:02;;;;;;;7.30;4.85;;;;;;;;;;6079359;23;20170;-90
2023/09/14 16:29:28;;;;;;;7.47;3.47;;;;;;;;;;6079169;23;20191;-92
2023/09/14 16:32:34;;;;;;;5.30;3.35;;;;;;;;;;6079960;23;20174;-89
2023/09/14 16:35:39;;;;;;;5.47;3.65;;;;;;;;;;6080287;23;20281;-90
2023/09/14 16:38:43;;;;;;;5.00;3.20;;;;;;;;;;6079490;23;20199;-88
2023/09/14 16:41:50;;;;;;;6.65;3.75;;;;;;;;;;6078117;23;20163;-90
2023/09/14 16:44:55;;;;;;;6.03;3.42;;;;;;;;;;6079690;23;20199;-91
2023/09/14 16:48:04;;;;;;;4.53;3.20;;;;;;;;;;6079164;23;20274;-89
2023/09/14 16:51:10;;;;;;;10.27;3.63;;;;;;;;;;6083484;23;20179;-89
2023/09/14 16:57:39;;;;;;;5.72;3.83;;;;;;;;;;6080500;23;20245;-88
2023/09/14 17:00:44;;;;;;;5.35;3.30;;;;;;;;;;6079222;23;20238;-87
2023/09/14 17:03:52;;;;;;;4.88;3.35;;;;;;;;;;6080571;23;20215;-90
2023/09/14 17:06:57;;;;;;;5.10;3.35;;;;;;;;;;6082921;23;20227;-89
2023/09/14 17:10:03;;;;;;;6.95;3.65;;;;;;;;;;6080550;23;20170;-89
2023/09/14 17:13:15;;;;;;;8.43;3.85;;;;;;;;;;6081009;23;20171;-89
2023/09/14 17:16:20;;;;;;;4.93;3.30;;;;;;;;;;6080160;23;20186;-88
2023/09/14 17:19:25;;;;;;;6.63;3.35;;;;;;;;;;6081008;23;20170;-90
2023/09/14 17:22:31;;;;;;;7.60;3.25;;;;;;;;;;6082103;23;20170;-90
2023/09/14 17:25:37;;;;;;;4.88;3.53;;;;;;;;;;6082569;23;20169;-88
2023/09/14 17:28:44;;;;;;;9.48;4.25;;;;;;;;;;6079322;23;20295;-91
2023/09/14 17:31:50;;;;;;;6.43;3.90;;;;;;;;;;6079157;23;20182;-89
2023/09/14 17:34:55;;;;;;;11.48;5.47;;;;;;;;;;6080843;23;20189;-90
2023/09/14 17:38:01;;;;;;;10.82;5.80;;;;;;;;;;6078984;23;20171;-90
2023/09/14 17:41:06;;;;;;;10.30;4.63;;;;;;;;;;6081559;23;20229;-90
2023/09/14 17:44:12;;;;;;;8.88;3.83;;;;;;;;;;6081074;23;20191;-90
2023/09/14 17:47:17;;;;;;;7.32;3.90;;;;;;;;;;6078486;23;20225;-90
2023/09/14 17:50:22;;;;;;;6.22;4.15;;;;;;;;;;6079739;23;20175;-92
2023/09/14 17:53:27;;;;;;;12.23;5.15;;;;;;;;;;6079400;23;20166;-91
2023/09/14 17:56:32;;;;;;;7.40;4.10;;;;;;;;;;6078904;23;20207;-90
2023/09/14 17:59:39;;;;;;;12.10;4.53;;;;;;;;;;6081186;23;20166;-91
2023/09/14 18:02:48;;;;;;;10.70;4.60;;;;;;;;;;6095497;23;20659;-91
2023/09/14 18:05:55;;;;;;;6.20;4.40;;;;;;;;;;6093486;23;20166;-91
2023/09/14 18:09:00;;;;;;;9.30;4.45;;;;;;;;;;6095670;23;20502;-91
2023/09/14 18:12:06;;;;;;;9.52;4.10;;;;;;;;;;6096324;23;20177;-89
2023/09/14 18:15:13;;;;;;;9.35;3.85;;;;;;;;;;6095345;23;20265;-91
2023/09/14 18:18:18;;;;;;;8.85;4.10;;;;;;;;;;6096451;23;20170;-91
2023/09/14 18:21:23;;;;;;;7.88;4.50;;;;;;;;;;6094277;23;20178;-91
2023/09/14 18:24:29;;;;;;;10.00;4.43;;;;;;;;;;6097765;23;20169;-89
2023/09/14 18:27:34;;;;;;;5.70;3.75;;;;;;;;;;6100718;23;20173;-89
2023/09/14 18:30:49;;;;;;;10.27;4.50;;;;;;;;;;6098891;23;20633;-89
2023/09/14 18:33:56;;;;;;;7.57;4.25;;;;;;;;;;6097591;23;20352;-88
2023/09/14 18:37:01;;;;;;;9.45;4.38;;;;;;;;;;6098891;23;20258;-90
2023/09/14 18:43:31;;;;;;;12.20;4.43;;;;;;;;;;6097221;23;20186;-91
2023/09/14 18:46:38;;;;;;;11.15;4.25;;;;;;;;;;6095065;23;20174;-91
2023/09/14 18:49:44;;;;;;;6.72;4.40;;;;;;;;;;6093487;23;20178;-90
2023/09/14 18:52:49;;;;;;;9.77;4.75;;;;;;;;;;6100542;23;20170;-88
2023/09/14 18:55:57;;;;;;;5.95;4.03;;;;;;;;;;6099522;23;20200;-89
2023/09/14 18:59:05;;;;;;;9.05;4.40;;;;;;;;;;6116105;23;20191;-89
2023/09/14 19:02:12;;;;;;;9.05;4.00;;;;;;;;;;6097060;23;20173;-89
2023/09/14 19:05:18;;;;;;;8.40;4.53;;;;;;;;;;6094641;23;20578;-90
2023/09/14 19:08:24;;;;;;;7.03;4.60;;;;;;;;;;6093508;23;20169;-90
2023/09/14 19:11:30;;;;;;;11.23;5.10;;;;;;;;;;6077195;23;20158;-90
2023/09/14 19:14:36;;;;;;;10.38;4.53;;;;;;;;;;6096607;23;20195;-90
2023/09/14 19:17:43;;;;;;;7.25;4.68;;;;;;;;;;6095259;23;20170;-92
2023/09/14 19:20:47;;;;;;;8.77;4.63;;;;;;;;;;6092594;23;20170;-87
2023/09/14 19:23:52;;;;;;;12.07;4.82;;;;;;;;;;6093255;23;20169;-89
2023/09/14 19:26:57;;;;;;;7.35;4.90;;;;;;;;;;6094562;23;20178;-88
2023/09/14 19:30:04;;;;;;;12.05;6.00;;;;;;;;;;6094236;23;20187;-90
2023/09/14 19:33:13;;;;;;;11.82;5.35;;;;;;;;;;6095308;23;20258;-90
2023/09/14 19:36:19;;;;;;;9.07;5.03;;;;;;;;;;6093458;23;20202;-88
2023/09/14 19:39:26;;;;;;;8.10;4.78;;;;;;;;;;6098704;23;20174;-89
2023/09/14 19:42:31;;;;;;;10.10;5.20;;;;;;;;;;6097871;23;20186;-90
2023/09/14 19:45:37;;;;;;;11.63;4.78;;;;;;;;;;6098016;23;20150;-92
2023/09/14 19:48:46;;;;;;;12.35;5.05;;;;;;;;;;6093097;23;20182;-92
2023/09/14 19:51:51;;;;;;;10.90;4.97;;;;;;;;;;6091196;23;20173;-88
2023/09/14 19:54:56;;;;;;;8.75;5.18;;;;;;;;;;6090603;23;20210;-90
2023/09/14 19:58:01;;;;;;;8.02;4.75;;;;;;;;;;6088772;23;20173;-91
2023/09/14 20:01:06;;;;;;;6.90;4.57;;;;;;;;;;6077088;23;20190;-88
2023/09/14 20:04:13;;;;;;;9.48;4.82;;;;;;;;;;6077937;23;20166;-91
2023/09/14 20:07:18;;;;;;;16.45;5.05;;;;;;;;;;6078839;23;20533;-89
2023/09/14 20:10:24;;;;;;;8.18;4.72;;;;;;;;;;6079225;23;20182;-92
2023/09/14 20:13:29;;;;;;;9.57;4.82;;;;;;;;;;6077964;23;20215;-92
2023/09/14 20:16:34;;;;;;;8.30;4.75;;;;;;;;;;6079794;23;20202;-89
2023/09/14 20:19:40;;;;;;;10.27;5.55;;;;;;;;;;6081319;23;20159;-92
2023/09/14 20:22:45;;;;;;;7.57;5.07;;;;;;;;;;6081088;23;20181;-91
2023/09/14 20:25:50;;;;;;;12.05;5.55;;;;;;;;;;6081765;23;20203;-91
2023/09/14 20:28:55;;;;;;;11.35;5.25;;;;;;;;;;6079460;23;20235;-90
2023/09/14 20:32:01;;;;;;;8.10;4.95;;;;;;;;;;6081651;23;20170;-91
2023/09/14 20:35:09;;;;;;;6.78;4.60;;;;;;;;;;6080489;23;20154;-90
2023/09/14 20:38:16;;;;;;;11.23;5.15;;;;;;;;;;6081531;23;20215;-91
2023/09/14 20:41:26;;;;;;;12.32;5.30;;;;;;;;;;6085234;23;20174;-91
2023/09/14 20:44:31;;;;;;;10.35;5.18;;;;;;;;;;6084580;23;20229;-91
2023/09/14 20:47:39;;;;;;;10.98;5.05;;;;;;;;;;6084392;23;20211;-94
2023/09/14 20:50:48;;;;;;;11.57;5.28;;;;;;;;;;6086708;23;20175;-91
2023/09/14 20:53:54;;;;;;;8.82;5.68;;;;;;;;;;6085459;23;20197;-93
2023/09/14 20:56:59;;;;;;;9.48;6.07;;;;;;;;;;6084880;23;20194;-92